Time;durP1;ratioP1;P1;durP2;ratioP2;P2;SDS_P1;SDS_P2;PMS_P1;PMS_P2;Temp;Humidity;BMP_temperature;BMP_pressure;BME280_temperature;BME280_humidity;BME280_pressure;Samples;Min_cycle;Max_cycle;Signal;HPM_P1;HPM_P2
2022/11/21 00:03:53;;;;;;;3.20;1.05;;;5.20;99.90;;;;;;21096877;28;20043;-78
2022/11/21 00:13:54;;;;;;;5.88;1.05;;;5.30;99.90;;;;;;21096323;28;20026;-78
2022/11/21 00:23:55;;;;;;;;;;;5.40;99.90;;;;;;21094761;28;20032;-77
2022/11/21 00:33:56;;;;;;;2.67;1.30;;;5.50;99.90;;;;;;21126431;28;19915;-78
2022/11/21 00:43:57;;;;;;;6.97;1.40;;;5.30;99.90;;;;;;21177792;28;20028;-78
2022/11/21 00:53:57;;;;;;;2.47;0.95;;;5.20;99.90;;;;;;21179909;28;20054;-78
2022/11/21 01:03:58;;;;;;;;;;;5.30;99.90;;;;;;21177765;28;20028;-78
2022/11/21 01:13:59;;;;;;;7.53;0.70;;;5.60;99.90;;;;;;21176791;28;19914;-79
2022/11/21 01:24:01;;;;;;;1.52;0.82;;;5.70;99.90;;;;;;21175910;28;20522;-78
2022/11/21 01:34:02;;;;;;;6.80;0.82;;;5.80;99.90;;;;;;21177992;28;20118;-78
2022/11/21 01:44:09;;;;;;;;;;;5.70;99.90;;;;;;21175223;28;20410;-79
2022/11/21 01:54:31;;;;;;;2.80;0.52;;;5.60;99.90;;;;;;21175793;28;19914;-78
2022/11/21 02:04:33;;;;;;;4.57;1.08;;;5.60;99.90;;;;;;21175766;28;20039;-79
2022/11/21 02:14:36;;;;;;;0.68;0.57;;;5.50;99.90;;;;;;21175898;28;20051;-78
2022/11/21 02:24:48;;;;;;;0.68;0.52;;;5.40;99.90;;;;;;21173956;28;20127;-79
2022/11/21 02:34:48;;;;;;;4.82;0.88;;;5.40;99.90;;;;;;21159153;28;20359;-79
2022/11/21 02:45:08;;;;;;;;;;;5.40;99.90;;;;;;21177180;28;20102;-78
2022/11/21 02:55:10;;;;;;;2.97;0.70;;;5.40;99.90;;;;;;21179797;28;19914;-77
2022/11/21 03:05:14;;;;;;;4.55;0.80;;;5.60;99.90;;;;;;21188799;28;20031;-78
2022/11/21 03:15:15;;;;;;;5.50;1.02;;;5.60;99.90;;;;;;21187981;28;20513;-79
2022/11/21 03:25:17;;;;;;;12.57;0.90;;;5.60;99.90;;;;;;21187461;28;20035;-79
2022/11/21 03:35:17;;;;;;;;;;;5.60;99.90;;;;;;21185619;28;20485;-78
2022/11/21 03:45:19;;;;;;;11.10;1.23;;;5.60;99.90;;;;;;21182681;28;19916;-78
2022/11/21 03:55:20;;;;;;;6.10;1.23;;;5.70;99.90;;;;;;21183946;28;20042;-78
2022/11/21 04:05:20;;;;;;;;;;;5.70;99.90;;;;;;21186542;28;20023;-78
2022/11/21 04:15:21;;;;;;;5.80;1.00;;;5.80;99.90;;;;;;21184087;28;19914;-78
2022/11/21 04:25:21;;;;;;;;;;;5.80;99.90;;;;;;21181215;28;20555;-79
2022/11/21 04:35:23;;;;;;;7.47;1.80;;;5.80;99.90;;;;;;21164765;28;19921;-79
2022/11/21 04:45:24;;;;;;;2.55;1.00;;;5.70;99.90;;;;;;21117794;27;20037;-78
2022/11/21 04:55:27;;;;;;;;;;;5.70;99.90;;;;;;21105683;28;20038;-79
2022/11/21 05:05:28;;;;;;;3.38;0.60;;;5.80;99.90;;;;;;21105050;28;19912;-78
2022/11/21 05:15:29;;;;;;;;;;;6.00;99.90;;;;;;21165332;28;20035;-78
2022/11/21 05:25:29;;;;;;;6.20;1.03;;;5.80;99.90;;;;;;21124069;28;19922;-78
2022/11/21 05:35:30;;;;;;;2.42;0.88;;;5.60;99.90;;;;;;21088940;28;20028;-79
2022/11/21 05:45:31;;;;;;;;;;;5.30;99.90;;;;;;21111272;28;20028;-78
2022/11/21 05:55:35;;;;;;;4.03;0.65;;;5.30;99.90;;;;;;21100201;28;19908;-80
2022/11/21 06:05:36;;;;;;;3.67;0.75;;;5.20;99.90;;;;;;21090389;28;20032;-78
2022/11/21 06:15:36;;;;;;;3.53;0.70;;;5.00;99.90;;;;;;21135370;28;20042;-79
2022/11/21 06:25:37;;;;;;;3.38;1.50;;;5.00;99.90;;;;;;21178514;28;20039;-79
2022/11/21 06:35:38;;;;;;;1.50;0.73;;;5.00;99.90;;;;;;21189597;28;20503;-79
2022/11/21 06:45:39;;;;;;;4.80;2.47;;;5.10;99.90;;;;;;21190197;28;20080;-79
2022/11/21 06:55:39;;;;;;;2.20;1.00;;;5.00;99.90;;;;;;21192225;28;20097;-79
2022/11/21 07:05:40;;;;;;;;;;;5.10;99.90;;;;;;21190915;28;20410;-80
2022/11/21 07:15:41;;;;;;;6.50;1.40;;;5.20;99.90;;;;;;21187619;28;19908;-80
2022/11/21 07:25:43;;;;;;;2.08;1.38;;;5.20;99.90;;;;;;21183086;28;20031;-79
2022/11/21 07:35:44;;;;;;;4.80;1.45;;;5.30;99.90;;;;;;21180989;28;20047;-80
2022/11/21 07:45:45;;;;;;;12.80;4.55;;;5.40;99.90;;;;;;21183013;28;20035;-79
2022/11/21 07:55:45;;;;;;;;;;;5.60;99.90;;;;;;21179078;28;20067;-78
2022/11/21 08:05:46;;;;;;;3.93;1.50;;;7.20;99.90;;;;;;21177164;28;19922;-80
2022/11/21 08:15:47;;;;;;;3.10;1.73;;;7.20;99.90;;;;;;21176981;28;20042;-80
2022/11/21 08:25:50;;;;;;;15.00;3.75;;;6.60;99.90;;;;;;21159433;28;20046;-79
2022/11/21 08:35:51;;;;;;;15.32;5.68;;;6.30;99.90;;;;;;21176809;28;20039;-79
2022/11/21 08:45:51;;;;;;;8.07;1.97;;;6.50;99.90;;;;;;21177963;28;20389;-78
2022/11/21 08:55:53;;;;;;;9.03;2.57;;;6.60;99.90;;;;;;21176029;28;20648;-80
2022/11/21 09:05:58;;;;;;;13.07;2.55;;;6.70;99.90;;;;;;21176730;28;20506;-79
2022/11/21 09:26:19;;;;;;;7.60;2.90;;;7.50;99.90;;;;;;21174013;28;20032;-80
2022/11/21 09:36:20;;;;;;;7.77;2.37;;;8.80;99.90;;;;;;21173741;28;20482;-80
2022/11/21 09:46:27;;;;;;;7.57;1.60;;;8.80;99.90;;;;;;21174027;28;20070;-77
2022/11/21 09:56:32;;;;;;;4.53;1.50;;;9.70;99.90;;;;;;21171048;28;20122;-78
2022/11/21 10:06:56;;;;;;;11.05;1.38;;;10.40;99.90;;;;;;21186187;28;20023;-78
2022/11/21 10:17:19;;;;;;;10.93;2.08;;;11.40;99.90;;;;;;21177340;28;20054;-80
2022/11/21 10:27:46;;;;;;;6.07;1.88;;;12.60;99.90;;;;;;21188843;28;20035;-80
2022/11/21 10:37:59;;;;;;;3.88;1.50;;;11.10;99.90;;;;;;21185190;28;20028;-79
2022/11/21 10:48:00;;;;;;;7.53;1.70;;;10.80;99.90;;;;;;21183144;28;20097;-80
2022/11/21 10:58:17;;;;;;;9.87;1.90;;;11.00;99.90;;;;;;21181665;28;20032;-80
2022/11/21 11:08:17;;;;;;;8.13;1.70;;;11.00;99.90;;;;;;21164843;28;20035;-79
2022/11/21 11:18:22;;;;;;;6.90;1.50;;;12.20;99.90;;;;;;21179819;28;20119;-79
2022/11/21 11:28:25;;;;;;;5.45;1.23;;;13.30;99.90;;;;;;21157920;28;20040;-80
2022/11/21 11:38:29;;;;;;;6.80;1.17;;;11.80;99.90;;;;;;21100265;28;20361;-79
2022/11/21 11:48:30;;;;;;;4.88;1.17;;;11.60;99.90;;;;;;21100035;28;20039;-80
2022/11/21 11:58:49;;;;;;;4.30;1.03;;;11.90;99.90;;;;;;21090227;28;20040;-80
2022/11/21 12:09:23;;;;;;;6.22;1.02;;;12.00;99.90;;;;;;21087401;28;20028;-80
2022/11/21 12:19:25;;;;;;;2.25;0.98;;;11.30;99.90;;;;;;21032965;28;20047;-79
2022/11/21 12:30:02;;;;;;;12.70;4.40;;;11.20;99.90;;;;;;21085942;28;20111;-80
2022/11/21 12:40:08;;;;;;;8.15;1.00;;;11.30;99.90;;;;;;21067845;28;20028;-79
2022/11/21 13:00:48;;;;;;;1.95;1.25;;;10.70;99.90;;;;;;21085379;28;20110;-80
2022/11/21 13:21:59;;;;;;;6.05;1.42;;;12.50;99.90;;;;;;21079301;28;20517;-80
2022/11/21 13:32:36;;;;;;;7.65;1.20;;;13.00;99.90;;;;;;21055312;28;20127;-79
2022/11/21 13:43:22;;;;;;;3.38;0.77;;;11.50;99.90;;;;;;21076061;28;20032;-81
2022/11/21 13:53:48;;;;;;;7.28;0.90;;;10.20;99.90;;;;;;21076777;28;20494;-79
2022/11/21 14:04:00;;;;;;;4.82;0.75;;;9.80;99.90;;;;;;21078879;28;20079;-81
2022/11/21 14:14:00;;;;;;;;;;;9.50;99.90;;;;;;21081107;28;20028;-81
2022/11/21 14:24:03;;;;;;;2.00;0.70;;;9.20;99.90;;;;;;21081458;28;19912;-80
2022/11/21 14:34:04;;;;;;;3.42;0.88;;;9.00;99.90;;;;;;21078834;28;20097;-81
2022/11/21 14:44:16;;;;;;;4.17;1.10;;;8.80;99.90;;;;;;21080061;28;20024;-77
2022/11/21 14:54:21;;;;;;;;;;;8.70;99.90;;;;;;21096754;28;20118;-79
2022/11/21 15:04:32;;;;;;;4.57;2.25;;;8.60;99.90;;;;;;21095622;28;19912;-78
2022/11/21 15:14:43;;;;;;;6.35;2.10;;;8.00;99.90;;;;;;21113288;27;20509;-78
2022/11/21 15:24:44;;;;;;;50.92;14.75;;;7.70;99.90;;;;;;21166079;27;20387;-78
2022/11/21 15:34:45;;;;;;;31.17;10.05;;;7.40;99.90;;;;;;21162289;27;20029;-77
2022/11/21 15:45:20;;;;;;;24.13;3.60;;;7.10;99.90;;;;;;21163002;28;20062;-78
2022/11/21 15:55:27;;;;;;;18.77;3.78;;;6.80;99.90;;;;;;21173314;28;20390;-78
2022/11/21 16:05:28;;;;;;;11.45;2.45;;;6.70;99.90;;;;;;21171229;28;20031;-78
2022/11/21 16:15:29;;;;;;;13.93;2.70;;;6.50;99.90;;;;;;21171095;28;20043;-78
2022/11/21 16:25:30;;;;;;;;;;;6.40;99.90;;;;;;21173346;28;20458;-79
2022/11/21 16:35:31;;;;;;;12.13;1.70;;;6.40;99.90;;;;;;21170860;27;20454;-78
2022/11/21 16:45:31;;;;;;;3.83;1.60;;;6.40;99.90;;;;;;21110370;27;20844;-78
2022/11/21 16:55:32;;;;;;;6.73;1.70;;;6.50;99.90;;;;;;21081918;28;20281;-78
2022/11/21 17:05:33;;;;;;;18.10;6.37;;;6.50;99.90;;;;;;21118345;28;20282;-79
2022/11/21 17:15:34;;;;;;;6.68;2.08;;;6.40;99.90;;;;;;21119948;28;20440;-77
2022/11/21 17:25:35;;;;;;;4.32;1.67;;;6.40;99.90;;;;;;21121029;28;20036;-79
2022/11/21 17:35:35;;;;;;;;;;;6.30;99.90;;;;;;21122864;28;20032;-78
2022/11/21 17:45:36;;;;;;;10.35;3.33;;;6.50;99.90;;;;;;21119320;28;19918;-79
2022/11/21 17:55:37;;;;;;;15.30;8.70;;;6.40;99.90;;;;;;21146531;28;20521;-80
2022/11/21 18:05:37;;;;;;;8.27;3.40;;;6.30;99.90;;;;;;21162897;28;20042;-77
2022/11/21 18:15:38;;;;;;;7.10;3.27;;;6.10;99.90;;;;;;21123374;28;20087;-77
2022/11/21 18:25:39;;;;;;;10.67;2.57;;;6.00;99.90;;;;;;21128566;28;20812;-77
2022/11/21 18:35:41;;;;;;;8.05;2.97;;;6.10;99.90;;;;;;21141008;28;20024;-77
2022/11/21 18:45:42;;;;;;;9.32;3.85;;;5.80;99.90;;;;;;21132538;28;20501;-76
2022/11/21 18:55:42;;;;;;;12.10;6.13;;;5.90;99.90;;;;;;21140806;28;20023;-76
2022/11/21 19:05:43;;;;;;;19.13;7.10;;;6.10;99.90;;;;;;21145749;27;20281;-77
2022/11/21 19:15:44;;;;;;;17.27;6.77;;;6.20;99.90;;;;;;21162122;28;20261;-78
2022/11/21 19:25:45;;;;;;;;;;;6.30;99.90;;;;;;21113628;28;20043;-79
2022/11/21 19:35:46;;;;;;;14.00;6.65;;;6.20;99.90;;;;;;21158368;28;19930;-77
2022/11/21 19:45:49;;;;;;;11.13;5.97;;;6.20;99.90;;;;;;21136420;28;20028;-77
2022/11/21 19:55:49;;;;;;;13.63;5.47;;;6.10;99.90;;;;;;21133563;28;20270;-77
2022/11/21 20:05:50;;;;;;;36.08;16.17;;;6.10;99.90;;;;;;21133526;28;20065;-79
2022/11/21 20:15:51;;;;;;;;;;;6.00;99.90;;;;;;21132928;28;20035;-78
2022/11/21 20:25:52;;;;;;;12.37;3.47;;;5.90;99.90;;;;;;21113936;28;19912;-77
2022/11/21 20:35:53;;;;;;;;;;;5.90;99.90;;;;;;21131543;28;20028;-77
2022/11/21 20:45:53;;;;;;;14.97;5.67;;;5.80;99.90;;;;;;21134991;28;19993;-78
2022/11/21 20:56:02;;;;;;;15.00;5.95;;;5.80;99.90;;;;;;21134191;28;20652;-78
2022/11/21 21:06:05;;;;;;;18.52;6.55;;;5.70;99.90;;;;;;21138502;28;20028;-79
2022/11/21 21:16:22;;;;;;;6.88;3.90;;;5.80;99.90;;;;;;21153089;28;20028;-77
2022/11/21 21:26:25;;;;;;;6.82;3.85;;;5.70;99.90;;;;;;21157920;28;20042;-77
2022/11/21 21:36:27;;;;;;;10.38;4.38;;;5.70;99.90;;;;;;21158963;28;20032;-76
2022/11/21 21:46:28;;;;;;;9.00;4.80;;;5.70;99.90;;;;;;21172342;28;20398;-75
2022/11/21 21:56:29;;;;;;;13.80;5.13;;;5.70;99.90;;;;;;21181581;28;20432;-76
2022/11/21 22:06:31;;;;;;;;;;;5.70;99.90;;;;;;21143066;28;20028;-77
2022/11/21 22:16:32;;;;;;;;;;;5.70;99.90;;;;;;21187524;28;19911;-77
2022/11/21 22:26:33;;;;;;;14.50;5.88;;;5.60;99.90;;;;;;21178801;28;19919;-77
2022/11/21 22:36:33;;;;;;;;;;;5.60;99.90;;;;;;21179264;28;20051;-77
2022/11/21 22:46:34;;;;;;;9.77;5.13;;;5.60;99.90;;;;;;21180149;28;19915;-77
2022/11/21 22:56:35;;;;;;;;;;;5.70;99.90;;;;;;21182433;28;20277;-77
2022/11/21 23:06:36;;;;;;;9.90;5.47;;;5.70;99.90;;;;;;21180183;28;19916;-77
2022/11/21 23:16:36;;;;;;;14.53;6.57;;;5.80;99.90;;;;;;21181247;28;20376;-77
2022/11/21 23:26:37;;;;;;;12.50;7.17;;;5.80;99.90;;;;;;21179697;28;20625;-77
2022/11/21 23:36:38;;;;;;;17.17;7.60;;;5.80;99.90;;;;;;21180814;28;20763;-77
2022/11/21 23:46:39;;;;;;;15.35;7.55;;;5.90;99.90;;;;;;21175145;28;20030;-77
2022/11/21 23:56:39;;;;;;;;;;;5.90;99.90;;;;;;21172805;28;20024;-77
